PWSweather.com
Personal Weather Stations
Station Observations
NOCONAWX
Sherman Street, Nocona, TX 76255

Sherman StreetNocona, TX 76255

Lat: 33.7851771, Lon: -97.7248693

Elevation: 981

Station Type: Davis 6152

http://www.noconaweather.com

High Low Average
Temperature 30.0°F-1.1°C 20.6°F-6.3°C 24.8°F-4.0°C
Dew Point 28.0°F-2.2°C 17.9°F-7.8°C 22.7°F-5.2°C
Winds 4.0 mph 6.4 kmh Calm Calm 2.0 mph NE3.2 kmh NE
Wind Gusts 10.0 mph16.1 kmh 1.0 mph1.6 kmh 4.0 mph6.4 kmh
Humidity 94% 89% 92%
Pressure 30.48 in1032.2 mb 30.35 in1027.8 mb -
Precipitation 0.00 in0.0 mm - -
Hour Temp Dew Point Humidity Winds Wind Gusts Pressure Precip Precip Rate Daily Precip Total
12:00 AM 20.6°F-6.3°C 17.9°F-7.8°C 89% 4.0 mph NE6.4 kmh NE 10.0 mph16.1 kmh 30.47 in1031.8 mb 0.00 in0.0 mm 0.00 in/hr0.0 mm/hr 0.00 in0.0 mm
12:15 AM 20.6°F-6.3°C 18.1°F-7.7°C 90% 2.0 mph NE3.2 kmh NE 7.0 mph11.3 kmh 30.48 in1032.2 mb 0.00 in0.0 mm 0.00 in/hr0.0 mm/hr 0.00 in0.0 mm
12:30 AM 20.6°F-6.3°C 18.1°F-7.7°C 90% 3.0 mph NE4.8 kmh NE 7.0 mph11.3 kmh 30.47 in1031.8 mb 0.00 in0.0 mm 0.00 in/hr0.0 mm/hr 0.00 in0.0 mm
12:45 AM 20.7°F-6.3°C 18.2°F-7.7°C 90% 3.0 mph NE4.8 kmh NE 5.0 mph8.0 kmh 30.48 in1032.2 mb 0.00 in0.0 mm 0.00 in/hr0.0 mm/hr 0.00 in0.0 mm
01:00 AM 20.7°F-6.3°C 18.2°F-7.7°C 90% 3.0 mph NE4.8 kmh NE 5.0 mph8.0 kmh 30.48 in1032.2 mb 0.00 in0.0 mm 0.00 in/hr0.0 mm/hr 0.00 in0.0 mm
01:15 AM 20.8°F-6.2°C 18.3°F-7.6°C 90% 2.0 mph NNE3.2 kmh NNE 5.0 mph8.0 kmh 30.48 in1032.2 mb 0.00 in0.0 mm 0.00 in/hr0.0 mm/hr 0.00 in0.0 mm
01:30 AM 20.7°F-6.3°C 18.2°F-7.7°C 90% 3.0 mph NE4.8 kmh NE 5.0 mph8.0 kmh 30.48 in1032.2 mb 0.00 in0.0 mm 0.00 in/hr0.0 mm/hr 0.00 in0.0 mm
01:45 AM 20.7°F-6.3°C 18.2°F-7.7°C 90% 2.0 mph NNE3.2 kmh NNE 4.0 mph6.4 kmh 30.48 in1032.2 mb 0.00 in0.0 mm 0.00 in/hr0.0 mm/hr 0.00 in0.0 mm
02:00 AM 20.7°F-6.3°C 18.2°F-7.7°C 90% 2.0 mph NE3.2 kmh NE 7.0 mph11.3 kmh 30.47 in1031.8 mb 0.00 in0.0 mm 0.00 in/hr0.0 mm/hr 0.00 in0.0 mm
02:15 AM 20.7°F-6.3°C 18.2°F-7.7°C 90% 2.0 mph NE3.2 kmh NE 5.0 mph8.0 kmh 30.47 in1031.8 mb 0.00 in0.0 mm 0.00 in/hr0.0 mm/hr 0.00 in0.0 mm
02:30 AM 20.7°F-6.3°C 18.2°F-7.7°C 90% 2.0 mph NE3.2 kmh NE 5.0 mph8.0 kmh 30.46 in1031.5 mb 0.00 in0.0 mm 0.00 in/hr0.0 mm/hr 0.00 in0.0 mm
02:45 AM 20.7°F-6.3°C 18.5°F-7.5°C 91% 2.0 mph NNE3.2 kmh NNE 5.0 mph8.0 kmh 30.46 in1031.5 mb 0.00 in0.0 mm 0.00 in/hr0.0 mm/hr 0.00 in0.0 mm
03:00 AM 20.7°F-6.3°C 18.5°F-7.5°C 91% 2.0 mph NNE3.2 kmh NNE 5.0 mph8.0 kmh 30.46 in1031.5 mb 0.00 in0.0 mm 0.00 in/hr0.0 mm/hr 0.00 in0.0 mm
03:15 AM 20.8°F-6.2°C 18.6°F-7.4°C 91% 1.0 mph NE1.6 kmh NE 3.0 mph4.8 kmh 30.46 in1031.5 mb 0.00 in0.0 mm 0.00 in/hr0.0 mm/hr 0.00 in0.0 mm
03:30 AM 20.7°F-6.3°C 18.5°F-7.5°C 91% 2.0 mph NE3.2 kmh NE 5.0 mph8.0 kmh 30.46 in1031.5 mb 0.00 in0.0 mm 0.00 in/hr0.0 mm/hr 0.00 in0.0 mm
03:45 AM 20.8°F-6.2°C 18.6°F-7.4°C 91% 2.0 mph NE3.2 kmh NE 3.0 mph4.8 kmh 30.46 in1031.5 mb 0.00 in0.0 mm 0.00 in/hr0.0 mm/hr 0.00 in0.0 mm
04:00 AM 20.8°F-6.2°C 18.6°F-7.4°C 91% 1.0 mph NE1.6 kmh NE 4.0 mph6.4 kmh 30.46 in1031.5 mb 0.00 in0.0 mm 0.00 in/hr0.0 mm/hr 0.00 in0.0 mm
04:15 AM 20.9°F-6.2°C 18.7°F-7.4°C 91% 1.0 mph NE1.6 kmh NE 5.0 mph8.0 kmh 30.46 in1031.5 mb 0.00 in0.0 mm 0.00 in/hr0.0 mm/hr 0.00 in0.0 mm
04:30 AM 20.9°F-6.2°C 18.7°F-7.4°C 91% 1.0 mph NE1.6 kmh NE 4.0 mph6.4 kmh 30.46 in1031.5 mb 0.00 in0.0 mm 0.00 in/hr0.0 mm/hr 0.00 in0.0 mm
04:45 AM 20.9°F-6.2°C 18.9°F-7.3°C 92% 1.0 mph NE1.6 kmh NE 5.0 mph8.0 kmh 30.45 in1031.2 mb 0.00 in0.0 mm 0.00 in/hr0.0 mm/hr 0.00 in0.0 mm
05:00 AM 20.9°F-6.2°C 18.9°F-7.3°C 92% 1.0 mph NE1.6 kmh NE 2.0 mph3.2 kmh 30.45 in1031.2 mb 0.00 in0.0 mm 0.00 in/hr0.0 mm/hr 0.00 in0.0 mm
05:15 AM 21.0°F-6.1°C 19.0°F-7.2°C 92% 1.0 mph NE1.6 kmh NE 4.0 mph6.4 kmh 30.45 in1031.2 mb 0.00 in0.0 mm 0.00 in/hr0.0 mm/hr 0.00 in0.0 mm
05:30 AM 21.1°F-6.1°C 19.1°F-7.2°C 92% 1.0 mph NE1.6 kmh NE 3.0 mph4.8 kmh 30.45 in1031.2 mb 0.00 in0.0 mm 0.00 in/hr0.0 mm/hr 0.00 in0.0 mm
05:45 AM 21.3°F-5.9°C 19.3°F-7.1°C 92% 1.0 mph NE1.6 kmh NE 4.0 mph6.4 kmh 30.46 in1031.5 mb 0.00 in0.0 mm 0.00 in/hr0.0 mm/hr 0.00 in0.0 mm
06:00 AM 21.5°F-5.8°C 19.5°F-6.9°C 92% 1.0 mph NE1.6 kmh NE 3.0 mph4.8 kmh 30.45 in1031.2 mb 0.00 in0.0 mm 0.00 in/hr0.0 mm/hr 0.00 in0.0 mm
06:15 AM 21.6°F-5.8°C 19.9°F-6.7°C 93% 1.0 mph NE1.6 kmh NE 4.0 mph6.4 kmh 30.45 in1031.2 mb 0.00 in0.0 mm 0.00 in/hr0.0 mm/hr 0.00 in0.0 mm
06:30 AM 21.6°F-5.8°C 19.9°F-6.7°C 93% 1.0 mph NE1.6 kmh NE 5.0 mph8.0 kmh 30.45 in1031.2 mb 0.00 in0.0 mm 0.00 in/hr0.0 mm/hr 0.00 in0.0 mm
06:45 AM 21.6°F-5.8°C 19.9°F-6.7°C 93% 1.0 mph NE1.6 kmh NE 1.0 mph1.6 kmh 30.45 in1031.2 mb 0.00 in0.0 mm 0.00 in/hr0.0 mm/hr 0.00 in0.0 mm
07:00 AM 21.7°F-5.7°C 20.0°F-6.7°C 93% 1.0 mph NNE1.6 kmh NNE 2.0 mph3.2 kmh 30.45 in1031.2 mb 0.00 in0.0 mm 0.00 in/hr0.0 mm/hr 0.00 in0.0 mm
07:15 AM 21.9°F-5.6°C 20.2°F-6.6°C 93% 1.0 mph NE1.6 kmh NE 3.0 mph4.8 kmh 30.45 in1031.2 mb 0.00 in0.0 mm 0.00 in/hr0.0 mm/hr 0.00 in0.0 mm
07:30 AM 22.1°F-5.5°C 20.4°F-6.4°C 93% 2.0 mph NE3.2 kmh NE 4.0 mph6.4 kmh 30.45 in1031.2 mb 0.00 in0.0 mm 0.00 in/hr0.0 mm/hr 0.00 in0.0 mm
07:45 AM 22.5°F-5.3°C 20.8°F-6.2°C 93% 1.0 mph N1.6 kmh N 3.0 mph4.8 kmh 30.45 in1031.2 mb 0.00 in0.0 mm 0.00 in/hr0.0 mm/hr 0.00 in0.0 mm
08:00 AM 22.6°F-5.2°C 21.1°F-6.1°C 94% 1.0 mph NNE1.6 kmh NNE 3.0 mph4.8 kmh 30.45 in1031.2 mb 0.00 in0.0 mm 0.00 in/hr0.0 mm/hr 0.00 in0.0 mm
08:15 AM 23.0°F-5.0°C 21.5°F-5.8°C 94% 2.0 mph ENE3.2 kmh ENE 4.0 mph6.4 kmh 30.46 in1031.5 mb 0.00 in0.0 mm 0.00 in/hr0.0 mm/hr 0.00 in0.0 mm
08:30 AM 23.5°F-4.7°C 22.0°F-5.6°C 94% 2.0 mph NE3.2 kmh NE 5.0 mph8.0 kmh 30.46 in1031.5 mb 0.00 in0.0 mm 0.00 in/hr0.0 mm/hr 0.00 in0.0 mm
08:45 AM 23.8°F-4.6°C 22.3°F-5.4°C 94% 1.0 mph NE1.6 kmh NE 4.0 mph6.4 kmh 30.47 in1031.8 mb 0.00 in0.0 mm 0.00 in/hr0.0 mm/hr 0.00 in0.0 mm
09:00 AM 24.1°F-4.4°C 22.6°F-5.2°C 94% 2.0 mph ENE3.2 kmh ENE 4.0 mph6.4 kmh 30.47 in1031.8 mb 0.00 in0.0 mm 0.00 in/hr0.0 mm/hr 0.00 in0.0 mm
09:15 AM 24.2°F-4.3°C 22.5°F-5.3°C 93% 2.0 mph NE3.2 kmh NE 5.0 mph8.0 kmh 30.47 in1031.8 mb 0.00 in0.0 mm 0.00 in/hr0.0 mm/hr 0.00 in0.0 mm
09:30 AM 24.7°F-4.1°C 23.2°F-4.9°C 94% 2.0 mph NE3.2 kmh NE 5.0 mph8.0 kmh 30.46 in1031.5 mb 0.00 in0.0 mm 0.00 in/hr0.0 mm/hr 0.00 in0.0 mm
09:45 AM 25.0°F-3.9°C 23.5°F-4.7°C 94% 1.0 mph ENE1.6 kmh ENE 3.0 mph4.8 kmh 30.47 in1031.8 mb 0.00 in0.0 mm 0.00 in/hr0.0 mm/hr 0.00 in0.0 mm
10:00 AM 25.2°F-3.8°C 23.5°F-4.7°C 93% 2.0 mph NE3.2 kmh NE 4.0 mph6.4 kmh 30.47 in1031.8 mb 0.00 in0.0 mm 0.00 in/hr0.0 mm/hr 0.00 in0.0 mm
10:15 AM 25.5°F-3.6°C 23.8°F-4.6°C 93% 3.0 mph NE4.8 kmh NE 6.0 mph9.7 kmh 30.46 in1031.5 mb 0.00 in0.0 mm 0.00 in/hr0.0 mm/hr 0.00 in0.0 mm
10:30 AM 25.9°F-3.4°C 24.2°F-4.3°C 93% 3.0 mph ENE4.8 kmh ENE 4.0 mph6.4 kmh 30.45 in1031.2 mb 0.00 in0.0 mm 0.00 in/hr0.0 mm/hr 0.00 in0.0 mm
10:45 AM 26.4°F-3.1°C 24.7°F-4.1°C 93% 2.0 mph ENE3.2 kmh ENE 5.0 mph8.0 kmh 30.45 in1031.2 mb 0.00 in0.0 mm 0.00 in/hr0.0 mm/hr 0.00 in0.0 mm
11:00 AM 26.7°F-2.9°C 24.9°F-3.9°C 93% 2.0 mph ENE3.2 kmh ENE 5.0 mph8.0 kmh 30.46 in1031.5 mb 0.00 in0.0 mm 0.00 in/hr0.0 mm/hr 0.00 in0.0 mm
11:15 AM 27.0°F-2.8°C 25.2°F-3.8°C 93% 2.0 mph E3.2 kmh E 5.0 mph8.0 kmh 30.46 in1031.5 mb 0.00 in0.0 mm 0.00 in/hr0.0 mm/hr 0.00 in0.0 mm
11:30 AM 27.5°F-2.5°C 25.7°F-3.5°C 93% 2.0 mph ESE3.2 kmh ESE 3.0 mph4.8 kmh 30.46 in1031.5 mb 0.00 in0.0 mm 0.00 in/hr0.0 mm/hr 0.00 in0.0 mm
11:45 AM 27.9°F-2.3°C 26.1°F-3.3°C 93% 1.0 mph E1.6 kmh E 4.0 mph6.4 kmh 30.45 in1031.2 mb 0.00 in0.0 mm 0.00 in/hr0.0 mm/hr 0.00 in0.0 mm
12:00 PM 28.3°F-2.1°C 26.5°F-3.1°C 93% 2.0 mph SE3.2 kmh SE 4.0 mph6.4 kmh 30.45 in1031.2 mb 0.00 in0.0 mm 0.00 in/hr0.0 mm/hr 0.00 in0.0 mm
12:15 PM 28.6°F-1.9°C 26.6°F-3.0°C 92% 1.0 mph E1.6 kmh E 4.0 mph6.4 kmh 30.44 in1030.8 mb 0.00 in0.0 mm 0.00 in/hr0.0 mm/hr 0.00 in0.0 mm
12:30 PM 28.7°F-1.8°C 26.7°F-2.9°C 92% 2.0 mph E3.2 kmh E 4.0 mph6.4 kmh 30.43 in1030.5 mb 0.00 in0.0 mm 0.00 in/hr0.0 mm/hr 0.00 in0.0 mm
12:45 PM 28.7°F-1.8°C 26.4°F-3.1°C 91% 2.0 mph ENE3.2 kmh ENE 3.0 mph4.8 kmh 30.42 in1030.1 mb 0.00 in0.0 mm 0.00 in/hr0.0 mm/hr 0.00 in0.0 mm
01:00 PM 29.0°F-1.7°C 26.7°F-2.9°C 91% 1.0 mph E1.6 kmh E 4.0 mph6.4 kmh 30.42 in1030.1 mb 0.00 in0.0 mm 0.00 in/hr0.0 mm/hr 0.00 in0.0 mm
01:15 PM 28.7°F-1.8°C 26.4°F-3.1°C 91% 2.0 mph E3.2 kmh E 5.0 mph8.0 kmh 30.40 in1029.5 mb 0.00 in0.0 mm 0.00 in/hr0.0 mm/hr 0.00 in0.0 mm
01:30 PM 29.1°F-1.6°C 27.1°F-2.7°C 92% 2.0 mph ESE3.2 kmh ESE 2.0 mph3.2 kmh 30.39 in1029.1 mb 0.00 in0.0 mm 0.00 in/hr0.0 mm/hr 0.00 in0.0 mm
01:45 PM 29.3°F-1.5°C 27.0°F-2.8°C 91% 2.0 mph E3.2 kmh E 4.0 mph6.4 kmh 30.38 in1028.8 mb 0.00 in0.0 mm 0.00 in/hr0.0 mm/hr 0.00 in0.0 mm
02:00 PM 29.5°F-1.4°C 27.2°F-2.7°C 91% 1.0 mph E1.6 kmh E 2.0 mph3.2 kmh 30.38 in1028.8 mb 0.00 in0.0 mm 0.00 in/hr0.0 mm/hr 0.00 in0.0 mm
02:15 PM 29.5°F-1.4°C 26.9°F-2.8°C 90% 1.0 mph ENE1.6 kmh ENE 2.0 mph3.2 kmh 30.37 in1028.4 mb 0.00 in0.0 mm 0.00 in/hr0.0 mm/hr 0.00 in0.0 mm
02:30 PM 29.7°F-1.3°C 27.7°F-2.4°C 92% 1.0 mph E1.6 kmh E 2.0 mph3.2 kmh 30.37 in1028.4 mb 0.00 in0.0 mm 0.00 in/hr0.0 mm/hr 0.00 in0.0 mm
02:45 PM 29.4°F-1.4°C 27.1°F-2.7°C 91% 2.0 mph NE3.2 kmh NE 5.0 mph8.0 kmh 30.37 in1028.4 mb 0.00 in0.0 mm 0.00 in/hr0.0 mm/hr 0.00 in0.0 mm
03:00 PM 30.0°F-1.1°C 28.0°F-2.2°C 92% 1.0 mph E1.6 kmh E 3.0 mph4.8 kmh 30.37 in1028.4 mb 0.00 in0.0 mm 0.00 in/hr0.0 mm/hr 0.00 in0.0 mm
03:15 PM 30.0°F-1.1°C 27.7°F-2.4°C 91% 1.0 mph E1.6 kmh E 2.0 mph3.2 kmh 30.37 in1028.4 mb 0.00 in0.0 mm 0.00 in/hr0.0 mm/hr 0.00 in0.0 mm
03:30 PM 30.0°F-1.1°C 27.7°F-2.4°C 91% 1.0 mph E1.6 kmh E 3.0 mph4.8 kmh 30.36 in1028.1 mb 0.00 in0.0 mm 0.00 in/hr0.0 mm/hr 0.00 in0.0 mm
03:45 PM 30.0°F-1.1°C 27.7°F-2.4°C 91% 1.0 mph ENE1.6 kmh ENE 2.0 mph3.2 kmh 30.36 in1028.1 mb 0.00 in0.0 mm 0.00 in/hr0.0 mm/hr 0.00 in0.0 mm
04:00 PM 29.6°F-1.3°C 27.6°F-2.4°C 92% 1.0 mph E1.6 kmh E 3.0 mph4.8 kmh 30.36 in1028.1 mb 0.00 in0.0 mm 0.00 in/hr0.0 mm/hr 0.00 in0.0 mm
04:15 PM 29.8°F-1.2°C 27.8°F-2.3°C 92% Calm Calm 4.0 mph6.4 kmh 30.35 in1027.8 mb 0.00 in0.0 mm 0.00 in/hr0.0 mm/hr 0.00 in0.0 mm
04:30 PM 29.6°F-1.3°C 27.6°F-2.4°C 92% 1.0 mph E1.6 kmh E 5.0 mph8.0 kmh 30.35 in1027.8 mb 0.00 in0.0 mm 0.00 in/hr0.0 mm/hr 0.00 in0.0 mm
04:45 PM 29.8°F-1.2°C 28.0°F-2.2°C 93% Calm Calm 1.0 mph1.6 kmh 30.35 in1027.8 mb 0.00 in0.0 mm 0.00 in/hr0.0 mm/hr 0.00 in0.0 mm
05:00 PM 29.8°F-1.2°C 27.8°F-2.3°C 92% Calm Calm 1.0 mph1.6 kmh 30.35 in1027.8 mb 0.00 in0.0 mm 0.00 in/hr0.0 mm/hr 0.00 in0.0 mm
05:15 PM 29.6°F-1.3°C 27.8°F-2.3°C 93% 1.0 mph E1.6 kmh E 2.0 mph3.2 kmh 30.35 in1027.8 mb 0.00 in0.0 mm 0.00 in/hr0.0 mm/hr 0.00 in0.0 mm
05:30 PM 29.5°F-1.4°C 27.7°F-2.4°C 93% 1.0 mph E1.6 kmh E 2.0 mph3.2 kmh 30.35 in1027.8 mb 0.00 in0.0 mm 0.00 in/hr0.0 mm/hr 0.00 in0.0 mm
05:45 PM 29.6°F-1.3°C 27.8°F-2.3°C 93% 1.0 mph E1.6 kmh E 2.0 mph3.2 kmh 30.35 in1027.8 mb 0.00 in0.0 mm 0.00 in/hr0.0 mm/hr 0.00 in0.0 mm